Time;durP1;ratioP1;P1;durP2;ratioP2;P2;SDS_P1;SDS_P2;PMS_P1;PMS_P2;Temp;Humidity;BMP_temperature;BMP_pressure;BME280_temperature;BME280_humidity;BME280_pressure;Samples;Min_cycle;Max_cycle;Signal;HPM_P1;HPM_P2
2022/04/21 00:00:39;;;;;;;2.95;2.70;;;8.10;89.60;;;;;;5035413;28;20170;-70
2022/04/21 00:03:06;;;;;;;2.88;2.58;;;8.00;89.90;;;;;;5035180;28;20899;-70
2022/04/21 00:05:32;;;;;;;3.00;2.80;;;8.00;90.00;;;;;;5035627;28;20239;-71
2022/04/21 00:07:58;;;;;;;3.03;2.83;;;8.00;90.20;;;;;;5035678;28;20626;-70
2022/04/21 00:10:25;;;;;;;2.70;2.20;;;7.90;90.40;;;;;;5035221;28;20302;-70
2022/04/21 00:12:51;;;;;;;3.35;3.15;;;7.90;90.60;;;;;;5034090;28;20452;-72
2022/04/21 00:15:18;;;;;;;3.60;3.00;;;7.90;91.00;;;;;;5033674;28;20296;-71
2022/04/21 00:17:44;;;;;;;4.07;3.78;;;7.80;91.70;;;;;;5035038;28;20183;-72
2022/04/21 00:20:11;;;;;;;7.93;3.17;;;7.70;92.10;;;;;;5037417;28;20173;-72
2022/04/21 00:25:21;;;;;;;4.25;3.95;;;7.70;92.70;;;;;;5034801;28;20236;-68
2022/04/21 00:27:47;;;;;;;4.03;3.77;;;7.70;93.10;;;;;;5035331;28;20542;-70
2022/04/21 00:30:16;;;;;;;3.65;3.35;;;7.70;93.40;;;;;;5033603;28;20183;-71
2022/04/21 00:32:42;;;;;;;3.22;2.92;;;7.60;93.30;;;;;;5035107;28;20310;-70
2022/04/21 00:35:14;;;;;;;4.38;3.97;;;7.60;93.60;;;;;;5034357;28;20205;-72
2022/04/21 00:37:44;;;;;;;4.38;3.70;;;7.60;93.50;;;;;;5033555;28;20166;-71
2022/04/21 00:40:11;;;;;;;4.25;3.95;;;7.50;93.80;;;;;;5034861;28;20526;-71
2022/04/21 00:42:37;;;;;;;3.55;3.25;;;7.50;93.70;;;;;;5034611;28;20166;-71
2022/04/21 00:45:03;;;;;;;2.97;2.40;;;7.50;93.70;;;;;;5034420;28;20213;-71
2022/04/21 00:47:30;;;;;;;4.27;3.87;;;7.40;93.70;;;;;;5034827;28;20412;-70
2022/04/21 00:49:56;;;;;;;6.38;4.45;;;7.40;93.80;;;;;;5034977;28;20405;-71
2022/04/21 00:52:22;;;;;;;4.87;4.47;;;7.30;94.00;;;;;;5033326;28;20261;-72
2022/04/21 00:54:51;;;;;;;3.90;3.60;;;7.30;94.40;;;;;;5034087;28;20546;-70
2022/04/21 00:57:18;;;;;;;3.92;3.03;;;7.20;94.70;;;;;;5034211;28;20531;-71
2022/04/21 00:59:47;;;;;;;4.57;3.25;;;7.20;95.20;;;;;;5034756;28;20227;-71
2022/04/21 01:04:59;;;;;;;3.75;3.55;;;7.10;96.30;;;;;;5033973;28;20309;-70
2022/04/21 01:07:25;;;;;;;3.92;3.58;;;7.00;96.80;;;;;;5034590;28;20179;-71
2022/04/21 01:09:55;;;;;;;4.20;3.47;;;7.00;97.30;;;;;;5034351;28;20186;-72
2022/04/21 01:12:20;;;;;;;3.60;3.30;;;7.00;97.60;;;;;;5032738;28;20178;-70
2022/04/21 01:14:46;;;;;;;3.70;3.43;;;7.00;97.80;;;;;;5033550;28;20660;-69
2022/04/21 01:17:12;;;;;;;6.13;3.93;;;7.00;98.50;;;;;;5034131;28;20172;-70
2022/04/21 01:19:38;;;;;;;3.47;3.28;;;7.00;99.10;;;;;;5034089;28;20672;-72
2022/04/21 01:22:04;;;;;;;4.60;4.27;;;6.90;99.50;;;;;;5034457;28;20210;-72
2022/04/21 01:24:29;;;;;;;7.27;3.97;;;6.90;99.90;;;;;;5033601;28;20179;-71
2022/04/21 01:26:57;;;;;;;4.80;4.07;;;6.90;99.60;;;;;;5033828;28;20207;-72
2022/04/21 01:29:23;;;;;;;4.18;3.88;;;7.00;99.30;;;;;;5032466;28;20182;-69
2022/04/21 01:31:49;;;;;;;7.30;3.85;;;6.90;99.10;;;;;;5033860;28;20170;-70
2022/04/21 01:34:16;;;;;;;3.20;3.00;;;6.90;99.70;;;;;;5033448;28;20240;-70
2022/04/21 01:42:14;;;;;;;3.75;3.45;;;6.90;99.90;;;;;;5013999;28;20326;-72
2022/04/21 01:44:40;;;;;;;5.07;3.47;;;6.80;99.90;;;;;;5015023;28;20264;-71
2022/04/21 01:47:06;;;;;;;7.43;4.40;;;6.80;99.90;;;;;;5033668;28;20245;-71
2022/04/21 01:49:32;;;;;;;5.27;4.77;;;6.80;99.90;;;;;;5033736;28;20397;-72
2022/04/21 01:51:57;;;;;;;4.80;4.30;;;6.80;99.90;;;;;;5033655;28;20698;-72
2022/04/21 01:54:23;;;;;;;5.00;4.20;;;6.80;99.90;;;;;;5032493;28;20202;-72
2022/04/21 01:56:48;;;;;;;5.63;5.07;;;6.70;99.90;;;;;;5033010;28;20682;-72
2022/04/21 01:59:14;;;;;;;4.27;3.87;;;6.70;99.90;;;;;;5033596;28;20528;-71
2022/04/21 02:01:40;;;;;;;4.57;4.27;;;6.60;99.90;;;;;;5033730;28;20218;-70
2022/04/21 02:04:05;;;;;;;6.57;4.53;;;6.60;99.90;;;;;;5032865;28;20192;-69
2022/04/21 02:06:31;;;;;;;5.07;4.57;;;6.60;99.90;;;;;;5033419;28;20534;-71
2022/04/21 02:08:57;;;;;;;5.57;5.00;;;6.60;99.90;;;;;;5031942;28;20167;-70
2022/04/21 02:11:23;;;;;;;7.50;5.47;;;6.60;99.90;;;;;;5031987;28;20180;-72
2022/04/21 02:13:49;;;;;;;8.77;5.05;;;6.60;99.90;;;;;;5033029;28;20224;-72
2022/04/21 02:16:15;;;;;;;4.90;4.07;;;6.60;99.90;;;;;;5033217;28;20198;-71
2022/04/21 02:18:41;;;;;;;5.43;4.70;;;6.60;99.90;;;;;;5032953;28;20174;-72
2022/04/21 02:21:06;;;;;;;4.80;4.10;;;6.60;99.90;;;;;;5033755;28;20173;-70
2022/04/21 02:23:32;;;;;;;4.53;4.10;;;6.60;99.90;;;;;;5032866;28;20170;-72
2022/04/21 02:25:57;;;;;;;4.80;4.27;;;6.50;99.90;;;;;;5032765;28;20206;-72
2022/04/21 02:28:25;;;;;;;8.87;5.30;;;6.50;99.90;;;;;;5033518;28;20174;-73
2022/04/21 02:30:51;;;;;;;4.97;4.57;;;6.40;99.90;;;;;;5033092;28;20177;-72
2022/04/21 02:33:16;;;;;;;4.50;4.20;;;6.40;99.90;;;;;;5032918;28;20533;-70
2022/04/21 02:35:43;;;;;;;5.97;4.47;;;6.40;99.90;;;;;;5032577;28;20469;-73
2022/04/21 02:38:08;;;;;;;4.60;4.20;;;6.30;99.90;;;;;;5033215;28;20244;-73
2022/04/21 02:40:34;;;;;;;14.37;5.27;;;6.30;99.90;;;;;;5033412;28;20665;-71
2022/04/21 02:43:00;;;;;;;7.30;4.57;;;6.30;99.90;;;;;;5033193;28;20173;-70
2022/04/21 02:45:25;;;;;;;6.63;4.50;;;6.20;99.90;;;;;;5032562;28;20427;-73
2022/04/21 02:47:51;;;;;;;5.43;4.23;;;6.20;99.90;;;;;;5033040;28;20178;-71
2022/04/21 02:50:18;;;;;;;4.55;4.15;;;6.20;99.90;;;;;;5033017;28;20193;-69
2022/04/21 02:52:44;;;;;;;8.40;4.70;;;6.10;99.90;;;;;;5032294;28;20660;-73
2022/04/21 02:57:59;;;;;;;9.05;6.15;;;6.10;99.90;;;;;;5033055;28;20495;-73
2022/04/21 03:00:24;;;;;;;5.85;4.93;;;6.10;99.90;;;;;;5033021;28;20600;-72
2022/04/21 03:02:50;;;;;;;5.20;4.50;;;6.00;99.90;;;;;;5032505;28;20201;-73
2022/04/21 03:05:16;;;;;;;4.87;4.20;;;5.90;99.90;;;;;;5031758;28;20202;-73
2022/04/21 03:07:42;;;;;;;5.60;4.65;;;5.90;99.90;;;;;;5036748;28;20692;-72
2022/04/21 03:10:09;;;;;;;4.28;3.85;;;5.80;99.90;;;;;;5036424;28;20541;-71
2022/04/21 03:12:35;;;;;;;3.58;3.38;;;5.80;99.90;;;;;;5036108;28;20213;-73
2022/04/21 03:15:01;;;;;;;4.43;4.03;;;5.70;99.90;;;;;;5035915;28;20234;-73
2022/04/21 03:17:29;;;;;;;3.45;3.15;;;5.70;99.90;;;;;;5035339;28;20178;-71
2022/04/21 03:19:54;;;;;;;4.07;3.78;;;5.60;99.90;;;;;;5036254;28;20166;-73
2022/04/21 03:25:06;;;;;;;4.70;4.30;;;5.50;99.90;;;;;;5035915;28;20435;-71
2022/04/21 03:27:33;;;;;;;6.90;4.93;;;5.50;99.90;;;;;;5034563;28;20183;-72
2022/04/21 03:30:05;;;;;;;5.55;4.70;;;5.50;99.90;;;;;;5036058;28;20166;-70
2022/04/21 03:32:31;;;;;;;5.35;4.55;;;5.50;99.90;;;;;;5036190;28;20166;-73
2022/04/21 03:34:59;;;;;;;5.10;3.97;;;5.50;99.90;;;;;;5035519;28;20209;-73
2022/04/21 03:37:24;;;;;;;7.25;5.45;;;5.40;99.90;;;;;;5035913;28;20201;-71
2022/04/21 03:39:50;;;;;;;4.00;3.70;;;5.40;99.90;;;;;;5036548;28;20637;-73
2022/04/21 03:42:24;;;;;;;5.55;5.05;;;5.40;99.90;;;;;;5035580;28;20193;-72
2022/04/21 03:44:50;;;;;;;4.80;4.40;;;5.30;99.90;;;;;;5035366;28;20162;-72
2022/04/21 03:47:16;;;;;;;6.63;4.75;;;5.20;99.90;;;;;;5035755;28;20173;-70
2022/04/21 03:49:42;;;;;;;6.00;4.73;;;5.20;99.90;;;;;;5036032;28;20166;-71
2022/04/21 03:52:10;;;;;;;7.63;4.70;;;5.20;99.90;;;;;;5035665;28;20170;-72
2022/04/21 03:54:36;;;;;;;6.32;4.50;;;5.10;99.90;;;;;;5035117;28;20189;-70
2022/04/21 03:57:02;;;;;;;5.57;5.07;;;5.20;99.90;;;;;;5035479;28;20178;-72
2022/04/21 03:59:28;;;;;;;4.57;4.25;;;5.10;99.90;;;;;;5035765;28;20249;-72
2022/04/21 04:01:57;;;;;;;4.93;4.47;;;5.10;99.90;;;;;;5035418;28;20249;-73
2022/04/21 04:04:23;;;;;;;4.80;4.28;;;5.00;99.90;;;;;;5035129;28;20182;-71
2022/04/21 04:12:16;;;;;;;6.15;4.13;;;5.10;99.90;;;;;;5035128;28;20220;-72
2022/04/21 04:14:43;;;;;;;4.53;4.10;;;5.10;99.90;;;;;;5035000;28;20225;-72
2022/04/21 04:17:08;;;;;;;4.90;4.60;;;5.00;99.90;;;;;;5034164;28;20189;-72
2022/04/21 04:19:35;;;;;;;4.67;4.27;;;5.00;99.90;;;;;;5035223;28;20170;-70
2022/04/21 04:22:02;;;;;;;6.78;4.28;;;5.00;99.90;;;;;;5035241;28;20405;-71
2022/04/21 04:24:28;;;;;;;8.50;5.18;;;4.90;99.90;;;;;;5034722;28;20171;-72
2022/04/21 04:26:54;;;;;;;8.07;5.78;;;4.90;99.90;;;;;;5034941;28;20197;-71
2022/04/21 04:29:22;;;;;;;6.85;5.50;;;4.90;99.90;;;;;;5035001;28;20178;-71
2022/04/21 04:31:57;;;;;;;7.47;4.85;;;4.90;99.90;;;;;;5034534;28;20177;-73
2022/04/21 04:34:23;;;;;;;9.23;5.97;;;4.90;99.90;;;;;;5034175;28;20296;-71
2022/04/21 04:36:49;;;;;;;4.60;3.93;;;5.00;99.90;;;;;;5034813;28;20217;-72
2022/04/21 04:39:16;;;;;;;5.93;5.53;;;5.00;99.90;;;;;;5034749;28;20397;-72
2022/04/21 04:44:26;;;;;;;6.03;4.45;;;5.30;99.90;;;;;;5034508;28;20181;-73
2022/04/21 04:46:52;;;;;;;6.07;5.47;;;5.50;99.90;;;;;;5034236;28;20193;-72
2022/04/21 04:49:18;;;;;;;5.60;4.73;;;5.60;99.90;;;;;;5034769;28;20208;-73
2022/04/21 04:51:44;;;;;;;5.67;5.17;;;5.80;99.90;;;;;;5034645;28;20179;-73
2022/04/21 04:54:12;;;;;;;7.30;6.53;;;5.90;99.90;;;;;;5033934;28;20170;-73
2022/04/21 04:56:39;;;;;;;5.88;4.85;;;6.10;99.90;;;;;;5034449;28;20695;-73
2022/04/21 04:59:05;;;;;;;5.70;5.20;;;6.30;99.90;;;;;;5034526;28;20174;-69
2022/04/21 05:01:33;;;;;;;6.85;5.43;;;6.50;99.90;;;;;;5034071;28;20257;-71
2022/04/21 05:04:07;;;;;;;9.27;5.63;;;6.70;99.90;;;;;;5033892;28;20206;-71
2022/04/21 05:06:50;;;;;;;6.53;5.18;;;7.00;99.90;;;;;;5034292;28;20269;-72
2022/04/21 05:09:18;;;;;;;5.47;4.50;;;7.30;99.90;;;;;;5034488;28;20262;-71
2022/04/21 05:11:48;;;;;;;4.78;4.35;;;7.70;99.90;;;;;;5034385;28;20631;-71
2022/04/21 05:14:15;;;;;;;7.82;5.65;;;7.90;99.90;;;;;;5033693;28;20177;-72
2022/04/21 05:16:40;;;;;;;6.22;4.95;;;8.20;99.90;;;;;;5033668;28;20190;-70
2022/04/21 05:19:14;;;;;;;7.57;5.00;;;8.40;99.90;;;;;;5034004;28;20170;-71
2022/04/21 05:21:41;;;;;;;6.03;5.53;;;8.80;99.90;;;;;;5033840;28;20401;-72
2022/04/21 05:24:08;;;;;;;4.90;4.45;;;9.10;99.90;;;;;;5032264;28;20197;-72
2022/04/21 05:26:34;;;;;;;5.53;5.00;;;9.30;99.90;;;;;;5033942;28;20205;-71
2022/04/21 05:31:58;;;;;;;6.05;5.45;;;9.30;99.10;;;;;;5033685;28;20193;-71
2022/04/21 05:34:24;;;;;;;5.97;5.30;;;9.20;99.30;;;;;;5033381;28;20189;-71
2022/04/21 05:36:51;;;;;;;5.82;5.22;;;9.30;99.40;;;;;;5033699;28;20552;-71
2022/04/21 05:39:17;;;;;;;6.05;4.97;;;9.30;99.10;;;;;;5033541;28;20170;-73
2022/04/21 05:41:44;;;;;;;7.57;5.68;;;9.40;99.00;;;;;;5032336;28;20181;-74
2022/04/21 05:44:10;;;;;;;6.68;5.30;;;9.60;99.10;;;;;;5033075;28;20184;-71
2022/04/21 05:46:36;;;;;;;6.80;5.72;;;9.80;98.60;;;;;;5033893;28;20188;-73
2022/04/21 05:49:02;;;;;;;6.30;5.70;;;10.00;97.40;;;;;;5033659;28;20621;-70
2022/04/21 05:51:28;;;;;;;6.25;5.65;;;10.10;97.00;;;;;;5033687;28;20185;-73
2022/04/21 05:53:57;;;;;;;7.93;6.50;;;10.30;96.70;;;;;;5033260;28;20170;-70
2022/04/21 05:56:23;;;;;;;7.13;6.43;;;10.60;96.40;;;;;;5031942;28;20461;-71
2022/04/21 05:58:49;;;;;;;8.60;7.80;;;10.80;96.00;;;;;;5033776;28;20171;-72
2022/04/21 06:01:15;;;;;;;7.97;5.67;;;11.00;95.40;;;;;;5032009;28;20418;-70
2022/04/21 06:03:43;;;;;;;6.13;5.53;;;11.20;94.80;;;;;;5033001;28;20184;-71
2022/04/21 06:06:10;;;;;;;6.80;5.93;;;11.50;94.60;;;;;;5033260;28;20266;-71
2022/04/21 06:08:36;;;;;;;8.10;6.47;;;11.80;93.90;;;;;;5033484;28;20395;-72
2022/04/21 06:11:03;;;;;;;8.03;6.90;;;12.10;93.70;;;;;;5033240;28;20407;-71
2022/04/21 06:13:30;;;;;;;7.57;6.83;;;12.30;92.90;;;;;;5033019;28;20783;-71
2022/04/21 06:15:57;;;;;;;5.20;4.70;;;12.50;92.70;;;;;;5032851;28;20460;-72
2022/04/21 06:18:23;;;;;;;6.73;5.47;;;12.70;92.10;;;;;;5033450;28;20411;-73
2022/04/21 06:20:50;;;;;;;7.10;6.40;;;12.80;91.30;;;;;;5033253;28;20408;-73
2022/04/21 06:23:16;;;;;;;5.47;5.00;;;12.90;91.20;;;;;;5032796;28;20771;-72
2022/04/21 06:25:43;;;;;;;6.80;5.83;;;12.90;90.60;;;;;;5033783;28;20460;-73
2022/04/21 06:28:12;;;;;;;5.80;5.30;;;12.90;90.70;;;;;;5031976;28;20963;-71
2022/04/21 06:30:38;;;;;;;6.10;5.63;;;12.80;90.60;;;;;;5032951;28;20426;-73
2022/04/21 06:33:05;;;;;;;6.23;5.70;;;12.70;90.60;;;;;;5032848;28;20408;-72
2022/04/21 06:35:31;;;;;;;6.67;5.50;;;12.60;90.60;;;;;;5033081;28;20930;-70
2022/04/21 06:37:57;;;;;;;6.40;5.80;;;12.60;90.50;;;;;;5033831;28;20438;-72
2022/04/21 06:40:23;;;;;;;5.50;5.00;;;12.50;91.30;;;;;;5036357;28;20478;-72
2022/04/21 06:42:49;;;;;;;6.27;5.73;;;12.50;91.70;;;;;;5037074;28;20483;-69
2022/04/21 06:48:02;;;;;;;6.73;5.93;;;12.60;91.30;;;;;;5037693;28;20513;-73
2022/04/21 06:50:35;;;;;;;7.20;6.57;;;12.70;90.80;;;;;;5037808;28;20407;-72
2022/04/21 06:53:06;;;;;;;6.73;6.13;;;12.70;90.70;;;;;;5037398;28;20411;-73
2022/04/21 06:55:33;;;;;;;6.50;5.90;;;12.80;91.10;;;;;;5036782;28;20521;-71
2022/04/21 06:57:59;;;;;;;6.40;5.80;;;12.90;90.90;;;;;;5037057;28;20803;-72
2022/04/21 07:00:28;;;;;;;7.60;6.70;;;13.10;90.90;;;;;;5036657;28;20823;-72
2022/04/21 07:02:57;;;;;;;5.83;5.27;;;13.30;90.80;;;;;;5036334;28;20428;-71
2022/04/21 07:05:27;;;;;;;8.47;6.20;;;13.50;91.20;;;;;;5035920;28;20428;-71
2022/04/21 07:07:53;;;;;;;7.43;5.97;;;13.70;90.60;;;;;;5034826;28;20458;-72
2022/04/21 07:10:20;;;;;;;6.17;5.57;;;14.10;90.20;;;;;;5035863;28;20459;-72
2022/04/21 07:12:46;;;;;;;6.00;5.50;;;14.40;88.30;;;;;;5035781;28;20405;-70
2022/04/21 07:15:12;;;;;;;6.33;5.73;;;14.70;88.00;;;;;;5035621;28;20459;-73
2022/04/21 07:17:39;;;;;;;6.90;6.23;;;15.40;87.20;;;;;;5036009;28;20454;-74
2022/04/21 07:20:07;;;;;;;6.20;5.70;;;16.00;85.20;;;;;;5035964;28;20855;-71
2022/04/21 07:22:33;;;;;;;7.37;6.63;;;16.60;81.40;;;;;;5035871;28;20416;-73
2022/04/21 07:25:00;;;;;;;10.57;6.77;;;16.90;80.20;;;;;;5035176;28;20425;-71
2022/04/21 07:27:26;;;;;;;8.10;7.40;;;17.40;79.80;;;;;;5035941;28;20240;-71
2022/04/21 07:29:52;;;;;;;6.93;6.30;;;17.80;76.80;;;;;;5035809;28;20408;-73
2022/04/21 07:32:18;;;;;;;7.70;7.10;;;18.10;75.90;;;;;;5035775;28;20401;-72
2022/04/21 07:34:44;;;;;;;7.27;6.57;;;18.40;74.70;;;;;;5035308;28;20276;-74
2022/04/21 07:37:09;;;;;;;7.80;6.40;;;18.50;74.90;;;;;;5036001;28;20500;-71
2022/04/21 07:39:37;;;;;;;7.13;6.50;;;18.70;71.80;;;;;;5035433;28;20190;-73
2022/04/21 07:42:05;;;;;;;7.90;7.20;;;19.30;71.50;;;;;;5035665;28;20170;-74
2022/04/21 07:44:34;;;;;;;6.33;5.70;;;19.40;69.30;;;;;;5033803;28;20933;-73
2022/04/21 07:46:59;;;;;;;7.67;6.90;;;20.00;68.70;;;;;;5035493;28;20408;-73
2022/04/21 07:54:54;;;;;;;6.80;6.23;;;22.00;63.20;;;;;;5034708;28;20529;-72
2022/04/21 07:57:20;;;;;;;6.97;6.40;;;22.50;61.20;;;;;;5035420;28;20410;-73
2022/04/21 07:59:47;;;;;;;7.00;6.40;;;22.80;59.20;;;;;;5035196;28;20416;-73
2022/04/21 08:02:15;;;;;;;6.33;5.70;;;23.40;58.30;;;;;;5035295;28;20166;-73
2022/04/21 08:04:44;;;;;;;7.57;6.87;;;23.70;57.60;;;;;;5034257;28;20439;-74
2022/04/21 08:07:10;;;;;;;6.73;6.13;;;24.00;57.10;;;;;;5034097;28;20407;-71
2022/04/21 08:09:36;;;;;;;6.20;5.70;;;24.30;56.00;;;;;;5035198;28;20419;-71
2022/04/21 08:12:02;;;;;;;7.00;6.40;;;24.70;56.20;;;;;;5034884;28;20625;-73
2022/04/21 08:14:28;;;;;;;6.00;5.50;;;25.20;54.30;;;;;;5034680;28;20496;-71
2022/04/21 08:16:54;;;;;;;5.90;5.40;;;25.40;53.10;;;;;;5034717;28;20190;-71
2022/04/21 08:19:20;;;;;;;5.97;5.37;;;25.40;53.30;;;;;;5035310;28;20416;-73
2022/04/21 08:21:47;;;;;;;6.17;5.57;;;25.40;53.10;;;;;;5034726;28;20660;-71
2022/04/21 08:32:44;;;;;;;6.87;6.27;;;25.40;53.00;;;;;;5034986;28;20404;-73
2022/04/21 08:35:13;;;;;;;6.70;6.20;;;26.00;52.30;;;;;;5034637;28;20503;-74
2022/04/21 08:37:41;;;;;;;6.20;5.70;;;26.10;50.50;;;;;;5034259;28;20392;-72
2022/04/21 08:40:07;;;;;;;5.70;5.10;;;26.10;50.10;;;;;;5034627;28;20429;-73
2022/04/21 08:42:39;;;;;;;5.57;5.07;;;26.20;50.00;;;;;;5033393;28;20499;-74
2022/04/21 08:45:12;;;;;;;5.57;5.17;;;26.20;49.40;;;;;;5034152;28;20402;-75
2022/04/21 08:47:40;;;;;;;5.57;5.17;;;26.10;49.80;;;;;;5034657;28;20414;-73
2022/04/21 08:50:06;;;;;;;6.17;5.67;;;25.90;49.30;;;;;;5034671;28;20453;-71
2022/04/21 08:52:34;;;;;;;6.00;5.50;;;25.80;49.40;;;;;;5034386;28;20394;-74
2022/04/21 08:55:02;;;;;;;5.00;4.60;;;25.80;49.00;;;;;;5033836;28;20400;-75
2022/04/21 08:57:29;;;;;;;5.50;5.00;;;25.80;49.60;;;;;;5034313;28;20367;-75
2022/04/21 08:59:56;;;;;;;5.10;4.70;;;26.10;49.00;;;;;;5034101;28;20375;-73
2022/04/21 09:02:32;;;;;;;4.40;4.10;;;26.00;48.70;;;;;;5032690;28;20413;-75
2022/04/21 09:04:58;;;;;;;6.20;5.70;;;26.30;48.40;;;;;;5033163;28;20460;-73
2022/04/21 09:07:23;;;;;;;5.37;4.87;;;26.50;47.70;;;;;;5033889;28;20388;-75
2022/04/21 09:09:59;;;;;;;4.53;4.10;;;26.80;47.60;;;;;;5033792;28;20162;-76
2022/04/21 09:12:25;;;;;;;4.40;4.00;;;27.20;47.00;;;;;;5033914;28;20572;-74
2022/04/21 09:14:51;;;;;;;5.70;5.30;;;26.80;46.80;;;;;;5033528;28;20405;-74
2022/04/21 09:17:16;;;;;;;5.20;4.70;;;26.30;47.10;;;;;;5033896;28;20174;-73
2022/04/21 09:19:59;;;;;;;5.40;5.00;;;25.70;47.70;;;;;;5033579;28;20170;-73
2022/04/21 09:22:25;;;;;;;4.60;4.20;;;25.30;48.70;;;;;;5033547;28;20185;-74
2022/04/21 09:24:54;;;;;;;5.10;4.60;;;25.30;47.60;;;;;;5033516;28;20538;-72
2022/04/21 09:27:20;;;;;;;4.50;4.17;;;25.40;47.70;;;;;;5033963;28;20399;-75
2022/04/21 09:29:47;;;;;;;4.70;4.30;;;25.70;48.40;;;;;;5033777;28;20404;-75
2022/04/21 09:32:18;;;;;;;4.70;4.40;;;26.10;47.60;;;;;;5034115;28;20389;-72
2022/04/21 09:34:49;;;;;;;4.57;4.27;;;26.50;46.90;;;;;;5032913;28;20395;-74
2022/04/21 09:37:19;;;;;;;6.07;5.50;;;26.10;47.50;;;;;;5033998;28;20466;-75
2022/04/21 09:39:52;;;;;;;6.90;6.30;;;25.90;48.20;;;;;;5033643;28;20409;-72
2022/04/21 09:42:25;;;;;;;5.90;5.40;;;25.40;48.70;;;;;;5033659;28;20419;-74
2022/04/21 09:47:35;;;;;;;5.40;4.90;;;25.70;50.90;;;;;;5034130;28;20468;-75
2022/04/21 09:50:12;;;;;;;5.93;5.43;;;26.20;48.90;;;;;;5033236;28;20392;-72
2022/04/21 09:52:38;;;;;;;5.23;4.73;;;26.10;49.10;;;;;;5033381;28;20170;-75
2022/04/21 09:55:30;;;;;;;4.70;4.40;;;25.60;49.00;;;;;;5033135;28;20440;-74
2022/04/21 09:58:08;;;;;;;4.00;3.70;;;25.70;48.20;;;;;;5033632;28;20413;-72
2022/04/21 10:00:36;;;;;;;4.93;4.53;;;26.00;47.80;;;;;;5033448;28;20903;-73
2022/04/21 10:03:03;;;;;;;4.60;4.30;;;26.30;49.40;;;;;;5031964;28;20758;-75
2022/04/21 10:05:33;;;;;;;4.50;4.10;;;26.30;48.10;;;;;;5032886;28;20543;-76
2022/04/21 10:08:03;;;;;;;4.87;4.47;;;26.50;48.70;;;;;;5033344;28;20382;-75
2022/04/21 10:10:31;;;;;;;5.30;4.90;;;26.10;48.40;;;;;;5033394;28;20375;-75
2022/04/21 10:12:59;;;;;;;6.07;5.57;;;26.10;48.30;;;;;;5033088;28;20380;-74
2022/04/21 10:15:26;;;;;;;4.63;4.23;;;26.10;48.00;;;;;;5032433;28;20775;-74
2022/04/21 10:17:52;;;;;;;4.70;4.40;;;26.10;48.60;;;;;;5032820;28;20405;-74
2022/04/21 10:20:21;;;;;;;4.50;4.10;;;25.60;49.00;;;;;;5033046;28;20479;-74
2022/04/21 10:22:49;;;;;;;4.77;4.37;;;25.60;49.10;;;;;;5033146;28;20241;-76
2022/04/21 10:25:14;;;;;;;4.80;4.40;;;25.10;49.10;;;;;;5032683;28;20869;-75
2022/04/21 10:27:47;;;;;;;4.30;4.00;;;24.40;49.70;;;;;;5033164;28;20501;-73
2022/04/21 10:30:20;;;;;;;4.60;4.20;;;23.60;50.20;;;;;;5033326;28;20696;-73
2022/04/21 10:32:54;;;;;;;4.20;3.90;;;23.20;51.70;;;;;;5032828;28;20411;-75
2022/04/21 10:35:39;;;;;;;3.10;2.90;;;22.50;52.10;;;;;;5032666;28;20418;-74
2022/04/21 10:38:14;;;;;;;2.73;2.60;;;22.20;52.90;;;;;;5028760;28;20431;-72
2022/04/21 10:41:03;;;;;;;3.60;3.30;;;22.30;52.60;;;;;;5033011;28;20509;-73
2022/04/21 10:43:50;;;;;;;3.40;3.10;;;22.60;52.90;;;;;;5064697;28;20924;-71
2022/04/21 10:46:29;;;;;;;4.03;3.63;;;22.80;52.20;;;;;;5032131;28;20458;-72
2022/04/21 10:48:55;;;;;;;4.13;2.50;;;22.60;52.80;;;;;;5032785;28;20400;-72
2022/04/21 10:57:32;;;;;;;2.70;2.50;;;21.80;53.80;;;;;;5024845;28;20404;-73
2022/04/21 11:00:00;;;;;;;2.73;2.53;;;21.70;54.60;;;;;;5033142;28;20454;-73
2022/04/21 11:02:39;;;;;;;2.50;2.40;;;21.70;54.00;;;;;;5032519;28;20519;-74
2022/04/21 11:05:27;;;;;;;2.80;1.90;;;21.80;53.80;;;;;;5032348;28;20827;-73
2022/04/21 11:07:58;;;;;;;2.30;2.20;;;21.40;53.70;;;;;;5033002;28;20409;-71
2022/04/21 11:10:27;;;;;;;3.40;2.60;;;21.00;54.60;;;;;;5032896;28;20412;-71
2022/04/21 11:12:53;;;;;;;2.27;2.07;;;20.60;54.50;;;;;;5031269;28;20400;-74
2022/04/21 11:15:41;;;;;;;2.00;1.83;;;20.20;55.60;;;;;;5030673;28;20440;-73
2022/04/21 11:18:15;;;;;;;2.63;1.60;;;19.70;56.20;;;;;;5032415;28;20480;-73
2022/04/21 11:20:48;;;;;;;3.47;2.00;;;19.30;56.50;;;;;;5032681;28;20417;-70
2022/04/21 11:23:37;;;;;;;2.50;2.30;;;18.90;56.90;;;;;;5032142;28;20415;-71
2022/04/21 11:26:05;;;;;;;1.80;1.70;;;18.80;58.00;;;;;;5022286;28;20499;-72
2022/04/21 11:28:31;;;;;;;2.37;2.27;;;18.60;58.80;;;;;;5035852;28;20405;-74
2022/04/21 11:31:03;;;;;;;1.80;1.70;;;18.60;58.60;;;;;;5035476;28;20409;-70
2022/04/21 11:33:31;;;;;;;1.53;1.43;;;18.60;60.60;;;;;;5035540;28;20895;-73
2022/04/21 11:36:14;;;;;;;1.77;1.67;;;18.70;57.80;;;;;;5035902;28;20424;-74
2022/04/21 11:38:45;;;;;;;1.30;1.30;;;18.70;57.60;;;;;;5035814;28;20915;-73
2022/04/21 11:41:12;;;;;;;1.40;1.30;;;18.60;57.90;;;;;;5035741;28;20405;-74
2022/04/21 11:43:45;;;;;;;1.50;1.40;;;18.50;57.50;;;;;;5035321;28;20506;-74
2022/04/21 11:46:12;;;;;;;3.00;1.00;;;18.50;57.30;;;;;;5034964;28;20971;-71
2022/04/21 11:48:40;;;;;;;1.10;1.07;;;18.40;57.20;;;;;;5035449;28;20765;-73
2022/04/21 11:51:11;;;;;;;1.30;1.20;;;18.40;56.90;;;;;;5035496;28;20504;-74
2022/04/21 11:53:40;;;;;;;1.37;1.27;;;18.50;57.60;;;;;;5035030;28;20420;-75
2022/04/21 11:56:07;;;;;;;1.40;1.30;;;18.50;56.30;;;;;;5035566;28;20487;-75
2022/04/21 11:58:41;;;;;;;1.57;1.47;;;18.50;56.20;;;;;;5035589;28;20425;-73
2022/04/21 12:06:43;;;;;;;1.60;1.33;;;18.60;57.00;;;;;;5035586;28;20950;-72
2022/04/21 12:09:20;;;;;;;1.27;1.17;;;18.70;57.50;;;;;;5035612;28;20398;-69
2022/04/21 12:11:57;;;;;;;1.20;1.10;;;18.70;57.00;;;;;;5035975;28;20495;-74
2022/04/21 12:14:23;;;;;;;1.27;1.17;;;18.50;57.50;;;;;;5035092;28;20606;-72
2022/04/21 12:16:53;;;;;;;1.50;1.40;;;18.50;56.90;;;;;;5035071;28;20483;-71
2022/04/21 12:19:46;;;;;;;1.60;1.53;;;18.20;57.20;;;;;;5034843;28;20419;-71
2022/04/21 12:22:13;;;;;;;1.47;1.37;;;17.90;57.70;;;;;;5035202;28;20418;-71
2022/04/21 12:24:49;;;;;;;1.20;1.10;;;17.90;57.50;;;;;;5034669;28;20804;-70
2022/04/21 12:27:16;;;;;;;1.30;1.27;;;17.80;57.90;;;;;;5034812;28;20442;-72
2022/04/21 12:29:48;;;;;;;1.10;1.10;;;17.70;58.00;;;;;;5034877;28;20428;-73
2022/04/21 12:32:21;;;;;;;1.47;1.23;;;17.70;58.90;;;;;;5035195;28;20409;-72
2022/04/21 12:34:47;;;;;;;1.50;1.40;;;17.90;59.10;;;;;;5034489;28;20767;-72
2022/04/21 12:37:13;;;;;;;3.40;1.50;;;18.10;59.20;;;;;;5034647;28;20410;-73
2022/04/21 12:39:40;;;;;;;1.60;1.50;;;18.30;59.50;;;;;;5034920;28;20750;-72
2022/04/21 12:42:06;;;;;;;1.33;1.33;;;18.50;58.90;;;;;;5034542;28;20425;-73
2022/04/21 12:44:32;;;;;;;1.20;1.20;;;18.50;58.20;;;;;;5033923;28;20429;-74
2022/04/21 12:47:04;;;;;;;1.70;1.60;;;18.40;58.60;;;;;;5034796;28;20415;-72
2022/04/21 12:49:55;;;;;;;1.80;1.70;;;18.10;59.20;;;;;;5034780;28;20406;-73
2022/04/21 12:52:36;;;;;;;1.60;1.50;;;18.10;59.80;;;;;;5034593;28;20401;-73
2022/04/21 12:55:05;;;;;;;2.10;1.77;;;18.20;60.30;;;;;;5034069;28;20417;-72
2022/04/21 12:57:30;;;;;;;1.67;1.67;;;18.40;60.60;;;;;;5034201;28;20519;-70
2022/04/21 12:59:56;;;;;;;1.73;1.63;;;18.40;59.60;;;;;;5034377;28;20487;-73
2022/04/21 13:02:22;;;;;;;1.63;1.53;;;18.30;59.30;;;;;;5034529;28;20176;-74
2022/04/21 13:04:49;;;;;;;2.27;2.07;;;18.20;59.40;;;;;;5032494;28;20522;-71
2022/04/21 13:07:14;;;;;;;2.83;2.40;;;18.10;59.80;;;;;;5034576;28;20404;-77
2022/04/21 13:09:40;;;;;;;2.20;1.90;;;18.10;59.60;;;;;;5034232;28;20510;-74
2022/04/21 13:12:07;;;;;;;1.60;1.50;;;18.00;59.50;;;;;;5033936;28;20180;-72
2022/04/21 13:14:35;;;;;;;2.10;1.87;;;17.80;59.90;;;;;;5033948;28;20525;-72
2022/04/21 13:17:01;;;;;;;2.63;2.43;;;17.60;60.20;;;;;;5034126;28;20406;-74
2022/04/21 13:19:26;;;;;;;2.20;2.10;;;17.50;61.20;;;;;;5033993;28;20509;-73
2022/04/21 13:21:52;;;;;;;1.70;1.60;;;17.60;61.00;;;;;;5033891;28;20172;-74
2022/04/21 13:24:30;;;;;;;1.93;1.83;;;17.60;60.60;;;;;;5033674;28;20620;-72
2022/04/21 13:26:58;;;;;;;2.27;2.07;;;17.70;61.30;;;;;;5033827;28;20586;-75
2022/04/21 13:29:24;;;;;;;1.60;1.53;;;17.90;61.10;;;;;;5033908;28;20404;-72
2022/04/21 13:34:35;;;;;;;1.60;1.50;;;18.30;59.20;;;;;;5033426;28;21150;-74
2022/04/21 13:37:02;;;;;;;1.63;1.53;;;18.50;59.40;;;;;;5033842;28;20408;-74
2022/04/21 13:39:28;;;;;;;1.87;1.77;;;18.60;58.20;;;;;;5033492;28;20917;-73
2022/04/21 13:41:54;;;;;;;1.50;1.40;;;18.70;58.80;;;;;;5033728;28;20416;-76
2022/04/21 13:44:19;;;;;;;1.83;1.73;;;18.80;58.40;;;;;;5033157;28;20411;-75
2022/04/21 13:46:45;;;;;;;2.17;2.07;;;18.90;58.10;;;;;;5033584;28;20201;-73
2022/04/21 13:49:11;;;;;;;1.27;1.27;;;18.90;58.40;;;;;;5032920;28;20626;-74
2022/04/21 13:51:39;;;;;;;2.13;1.93;;;18.90;58.30;;;;;;5033602;28;20461;-75
2022/04/21 13:54:06;;;;;;;1.60;1.50;;;18.90;58.20;;;;;;5034099;28;20576;-76
2022/04/21 13:56:32;;;;;;;1.83;1.73;;;18.90;58.10;;;;;;5031992;28;20476;-74